Time;durP1;ratioP1;P1;durP2;ratioP2;P2;SDS_P1;SDS_P2;PMS_P1;PMS_P2;Temp;Humidity;BMP_temperature;BMP_pressure;BME280_temperature;BME280_humidity;BME280_pressure;Samples;Min_cycle;Max_cycle;Signal;HPM_P1;HPM_P2
2021/10/08 00:00:21;;;;;;;5.60;5.10;;;10.60;99.90;;;;;;5036127;28;20183;-78
2021/10/08 00:02:47;;;;;;;6.17;5.63;;;10.60;99.90;;;;;;5035963;28;20730;-77
2021/10/08 00:05:12;;;;;;;6.10;5.50;;;10.60;99.90;;;;;;5036028;28;20197;-77
2021/10/08 00:07:38;;;;;;;5.40;4.90;;;10.50;99.90;;;;;;5035818;28;20210;-77
2021/10/08 00:10:06;;;;;;;5.77;5.20;;;10.60;99.90;;;;;;5035914;28;20269;-77
2021/10/08 00:12:31;;;;;;;5.67;5.17;;;10.60;99.90;;;;;;5035921;28;20197;-77
2021/10/08 00:14:57;;;;;;;6.43;5.83;;;10.50;99.90;;;;;;5035795;28;20594;-77
2021/10/08 00:17:23;;;;;;;7.47;6.30;;;10.50;99.90;;;;;;5035730;28;20207;-77
2021/10/08 00:19:48;;;;;;;6.53;5.37;;;10.50;99.90;;;;;;5035582;28;20193;-77
2021/10/08 00:22:15;;;;;;;6.00;5.40;;;10.50;99.90;;;;;;5035532;28;20190;-77
2021/10/08 00:24:40;;;;;;;6.20;5.73;;;10.50;99.90;;;;;;5036013;28;20174;-77
2021/10/08 00:27:06;;;;;;;6.53;5.77;;;10.50;99.90;;;;;;5017791;28;20208;-77
2021/10/08 00:29:32;;;;;;;6.70;5.53;;;10.50;99.90;;;;;;5017832;28;20183;-77
2021/10/08 00:31:57;;;;;;;6.07;5.47;;;10.40;99.90;;;;;;5035476;28;20183;-77
2021/10/08 00:34:23;;;;;;;5.90;5.40;;;10.40;99.90;;;;;;5034070;28;20205;-77
2021/10/08 00:36:49;;;;;;;6.07;5.47;;;10.40;99.90;;;;;;5035360;28;20179;-77
2021/10/08 00:39:14;;;;;;;6.23;5.67;;;10.50;99.90;;;;;;5035236;28;20187;-77
2021/10/08 00:41:40;;;;;;;7.70;5.43;;;10.40;99.90;;;;;;5017626;28;20187;-77
2021/10/08 00:44:06;;;;;;;6.37;5.77;;;10.40;99.90;;;;;;5035021;28;20220;-77
2021/10/08 00:46:32;;;;;;;6.23;5.73;;;10.30;99.90;;;;;;5033268;28;20212;-77
2021/10/08 00:48:58;;;;;;;6.23;5.67;;;10.30;99.90;;;;;;5030245;28;20243;-78
2021/10/08 00:51:25;;;;;;;7.00;5.93;;;10.30;99.90;;;;;;5035003;28;20185;-77
2021/10/08 00:53:51;;;;;;;6.80;6.03;;;10.30;99.90;;;;;;5035095;28;20228;-77
2021/10/08 00:56:18;;;;;;;7.30;6.60;;;10.30;99.90;;;;;;5035002;28;20258;-78
2021/10/08 00:58:44;;;;;;;7.60;6.80;;;10.30;99.90;;;;;;5018012;28;20290;-77
2021/10/08 01:01:13;;;;;;;6.70;6.17;;;10.30;99.90;;;;;;5026898;28;20200;-77
2021/10/08 01:03:39;;;;;;;8.70;6.07;;;10.20;99.90;;;;;;5033582;28;20657;-77
2021/10/08 01:06:05;;;;;;;11.07;8.40;;;10.30;99.90;;;;;;5034571;28;20187;-77
2021/10/08 01:08:30;;;;;;;7.27;6.27;;;10.30;99.90;;;;;;5034329;28;20188;-77
2021/10/08 01:10:56;;;;;;;7.17;5.97;;;10.20;99.90;;;;;;5029257;28;20191;-77
2021/10/08 01:13:22;;;;;;;6.77;6.10;;;10.20;99.90;;;;;;5015753;28;20211;-77
2021/10/08 01:15:48;;;;;;;7.97;6.57;;;10.20;99.90;;;;;;5015203;28;20279;-77
2021/10/08 01:18:13;;;;;;;6.90;6.30;;;10.20;99.90;;;;;;5032848;28;20182;-77
2021/10/08 01:20:39;;;;;;;7.17;5.83;;;10.10;99.90;;;;;;5032286;28;20657;-77
2021/10/08 01:23:05;;;;;;;7.97;6.77;;;10.10;99.90;;;;;;5031711;28;20627;-77
2021/10/08 01:25:34;;;;;;;7.60;6.90;;;10.10;99.90;;;;;;5032028;28;20179;-78
2021/10/08 01:28:00;;;;;;;6.60;6.00;;;10.00;99.90;;;;;;5013953;28;20203;-77
2021/10/08 01:30:26;;;;;;;10.27;7.07;;;10.00;99.90;;;;;;5014539;28;20227;-77
2021/10/08 01:32:53;;;;;;;7.90;7.17;;;10.00;99.90;;;;;;5014946;28;20199;-77
2021/10/08 01:35:20;;;;;;;7.37;6.77;;;10.00;99.90;;;;;;5031880;28;20179;-77
2021/10/08 01:37:46;;;;;;;6.90;6.37;;;10.00;99.90;;;;;;5031289;28;20212;-77
2021/10/08 01:40:13;;;;;;;9.37;6.80;;;9.90;99.90;;;;;;5032416;28;20229;-77
2021/10/08 01:42:39;;;;;;;9.07;7.40;;;9.90;99.90;;;;;;5030549;28;20215;-77
2021/10/08 01:45:10;;;;;;;8.17;7.37;;;9.90;99.90;;;;;;5023478;28;20651;-77
2021/10/08 01:47:35;;;;;;;9.43;7.43;;;9.90;99.90;;;;;;5030251;28;20219;-76
2021/10/08 01:50:01;;;;;;;8.63;6.90;;;9.90;99.90;;;;;;5032154;28;20180;-78
2021/10/08 01:52:27;;;;;;;8.53;7.63;;;10.00;99.90;;;;;;5031783;28;20232;-78
2021/10/08 01:54:53;;;;;;;8.73;7.97;;;10.00;99.90;;;;;;5033164;28;20522;-77
2021/10/08 01:57:18;;;;;;;8.40;7.70;;;10.00;99.90;;;;;;5015205;28;20241;-77
2021/10/08 01:59:44;;;;;;;9.27;7.73;;;10.00;99.90;;;;;;5033158;28;20721;-78
2021/10/08 02:02:10;;;;;;;9.10;8.10;;;10.00;99.90;;;;;;5033461;28;20663;-77
2021/10/08 02:04:36;;;;;;;9.57;8.07;;;10.10;99.90;;;;;;5033603;28;20186;-77
2021/10/08 02:07:02;;;;;;;8.70;7.80;;;10.10;99.90;;;;;;5033446;28;20203;-77
2021/10/08 02:09:28;;;;;;;8.90;8.00;;;10.20;99.90;;;;;;5015906;28;20184;-77
2021/10/08 02:11:53;;;;;;;8.77;7.93;;;10.20;99.90;;;;;;5033588;28;20553;-77
2021/10/08 02:14:19;;;;;;;9.37;8.37;;;10.20;99.90;;;;;;5033421;28;20203;-77
2021/10/08 02:16:45;;;;;;;8.90;8.10;;;10.30;99.90;;;;;;5016249;28;20199;-77
2021/10/08 02:19:11;;;;;;;8.33;7.53;;;10.30;99.90;;;;;;5033530;28;20186;-77
2021/10/08 02:21:37;;;;;;;9.37;8.47;;;10.30;99.90;;;;;;5033423;28;20599;-77
2021/10/08 02:24:03;;;;;;;8.77;7.80;;;10.30;99.90;;;;;;5016204;28;20551;-77
2021/10/08 02:26:29;;;;;;;8.77;7.83;;;10.30;99.90;;;;;;5015670;28;20300;-77
2021/10/08 02:28:55;;;;;;;8.77;7.90;;;10.40;99.90;;;;;;5016034;28;20387;-77
2021/10/08 02:31:20;;;;;;;10.27;7.73;;;10.40;99.90;;;;;;5033275;28;20177;-78
2021/10/08 02:33:47;;;;;;;8.67;7.60;;;10.30;99.90;;;;;;5015451;28;20609;-78
2021/10/08 02:36:13;;;;;;;10.73;7.40;;;10.40;99.90;;;;;;5015556;28;20578;-76
2021/10/08 02:38:40;;;;;;;8.97;8.07;;;10.40;99.90;;;;;;5015513;28;20268;-77
2021/10/08 02:41:06;;;;;;;9.73;8.17;;;10.40;99.90;;;;;;5033224;28;20623;-77
2021/10/08 02:43:32;;;;;;;9.10;8.20;;;10.40;99.90;;;;;;5033107;28;20223;-77
2021/10/08 02:45:58;;;;;;;11.17;8.10;;;10.40;99.90;;;;;;5033036;28;20204;-77
2021/10/08 02:48:24;;;;;;;9.00;8.20;;;10.40;99.90;;;;;;5033137;28;20655;-77
2021/10/08 02:50:50;;;;;;;8.63;7.83;;;10.40;99.90;;;;;;5031679;28;20192;-77
2021/10/08 02:53:16;;;;;;;9.43;8.47;;;10.50;99.90;;;;;;5022369;28;20228;-77
2021/10/08 02:55:42;;;;;;;9.67;8.37;;;10.50;99.90;;;;;;5033033;28;20176;-77
2021/10/08 02:58:07;;;;;;;9.33;8.43;;;10.50;99.90;;;;;;5035964;28;20183;-77
2021/10/08 03:00:34;;;;;;;10.80;9.03;;;10.50;99.90;;;;;;5037277;28;20187;-77
2021/10/08 03:02:59;;;;;;;9.93;8.77;;;10.50;99.90;;;;;;5037025;28;20269;-78
2021/10/08 03:05:25;;;;;;;10.00;8.63;;;10.40;99.90;;;;;;5019983;28;20648;-77
2021/10/08 03:07:51;;;;;;;11.20;8.50;;;10.50;99.90;;;;;;5036849;28;20678;-77
2021/10/08 03:10:19;;;;;;;11.17;8.73;;;10.50;99.90;;;;;;5037219;28;20179;-78
2021/10/08 03:12:48;;;;;;;9.10;8.30;;;10.50;99.90;;;;;;5036530;28;20287;-77
2021/10/08 03:15:15;;;;;;;9.63;8.67;;;10.50;99.90;;;;;;5005452;28;20189;-77
2021/10/08 03:17:40;;;;;;;10.17;9.13;;;10.60;99.90;;;;;;5036906;28;20188;-79
2021/10/08 03:20:08;;;;;;;12.53;9.70;;;10.50;99.90;;;;;;5036716;28;20176;-78
2021/10/08 03:22:34;;;;;;;10.80;9.70;;;10.40;99.90;;;;;;5019552;28;20207;-76
2021/10/08 03:25:00;;;;;;;10.33;9.23;;;10.40;99.90;;;;;;5036761;28;20190;-76
2021/10/08 03:27:26;;;;;;;10.33;9.33;;;10.50;99.90;;;;;;5036490;28;20242;-77
2021/10/08 03:29:52;;;;;;;15.37;10.03;;;10.40;99.90;;;;;;5036777;28;20548;-77
2021/10/08 03:32:17;;;;;;;11.73;10.33;;;10.40;99.90;;;;;;5036500;28;20613;-77
2021/10/08 03:34:43;;;;;;;11.73;10.73;;;10.40;99.90;;;;;;5013393;28;20178;-77
2021/10/08 03:37:12;;;;;;;11.83;10.63;;;10.30;99.90;;;;;;5030990;28;20211;-78
2021/10/08 03:39:41;;;;;;;18.23;13.27;;;10.30;99.90;;;;;;5036427;28;20308;-77
2021/10/08 03:42:11;;;;;;;16.33;13.07;;;10.30;99.90;;;;;;5037998;28;20184;-76
2021/10/08 03:44:38;;;;;;;13.07;11.37;;;10.30;99.90;;;;;;5020111;28;20268;-78
2021/10/08 03:47:14;;;;;;;16.10;11.67;;;10.30;99.90;;;;;;5040076;28;20211;-75
2021/10/08 03:49:43;;;;;;;12.80;11.50;;;10.30;99.90;;;;;;5036873;28;20215;-77
2021/10/08 03:52:10;;;;;;;11.93;10.67;;;10.20;99.90;;;;;;5018704;28;20234;-75
2021/10/08 03:54:36;;;;;;;15.83;11.53;;;10.20;99.90;;;;;;5036477;28;20177;-76
2021/10/08 03:57:02;;;;;;;14.53;11.13;;;10.20;99.90;;;;;;5036326;28;20682;-76
2021/10/08 03:59:27;;;;;;;13.00;11.63;;;10.10;99.90;;;;;;5036135;28;20238;-77
2021/10/08 04:01:55;;;;;;;15.53;12.23;;;10.10;99.90;;;;;;5022557;28;20652;-76
2021/10/08 04:04:21;;;;;;;16.90;11.77;;;10.10;99.90;;;;;;5019073;28;20706;-77
2021/10/08 04:06:47;;;;;;;13.00;11.60;;;10.00;99.90;;;;;;5035815;28;20262;-77
2021/10/08 04:09:13;;;;;;;13.33;11.23;;;10.00;99.90;;;;;;5016580;28;20633;-76
2021/10/08 04:11:39;;;;;;;13.43;10.57;;;10.00;99.90;;;;;;5034351;28;20223;-76
2021/10/08 04:14:04;;;;;;;12.53;11.37;;;10.00;99.90;;;;;;5016128;28;20239;-77
2021/10/08 04:16:30;;;;;;;14.33;11.40;;;10.00;99.90;;;;;;5033186;28;20191;-77
2021/10/08 04:18:56;;;;;;;12.73;11.43;;;9.90;99.90;;;;;;5034059;28;20181;-77
2021/10/08 04:21:21;;;;;;;14.10;12.50;;;9.90;99.90;;;;;;5015370;28;20185;-77
2021/10/08 04:23:47;;;;;;;15.83;11.97;;;9.90;99.90;;;;;;5034851;28;20230;-77
2021/10/08 04:26:13;;;;;;;11.77;10.30;;;9.90;99.90;;;;;;5016218;28;20216;-76
2021/10/08 04:28:39;;;;;;;16.73;11.23;;;9.90;99.90;;;;;;5033756;28;20195;-77
2021/10/08 04:31:04;;;;;;;16.53;11.93;;;9.90;99.90;;;;;;5033564;28;20193;-77
2021/10/08 04:33:30;;;;;;;12.93;11.63;;;9.90;99.90;;;;;;5032664;28;20202;-77
2021/10/08 04:35:59;;;;;;;12.93;11.30;;;9.90;99.90;;;;;;5033752;28;20204;-76
2021/10/08 04:38:26;;;;;;;12.80;11.50;;;9.90;99.90;;;;;;5032469;28;20731;-78
2021/10/08 04:40:52;;;;;;;13.93;12.37;;;9.90;99.90;;;;;;5033258;28;20237;-76
2021/10/08 04:43:17;;;;;;;13.57;11.20;;;10.00;99.90;;;;;;5009590;28;20228;-77
2021/10/08 04:45:44;;;;;;;15.27;11.57;;;10.00;99.90;;;;;;5032000;28;20184;-77
2021/10/08 04:48:10;;;;;;;14.97;12.53;;;10.00;99.90;;;;;;5012780;28;20213;-77
2021/10/08 04:50:35;;;;;;;17.47;13.27;;;10.00;99.90;;;;;;5030925;28;20548;-77
2021/10/08 04:53:18;;;;;;;16.10;12.97;;;10.10;99.90;;;;;;5031634;28;20227;-77
2021/10/08 04:55:45;;;;;;;13.73;12.40;;;10.10;99.90;;;;;;5015445;28;20670;-77
2021/10/08 04:58:11;;;;;;;17.10;12.50;;;10.20;99.90;;;;;;5031998;28;20181;-77
2021/10/08 05:00:38;;;;;;;13.37;11.97;;;10.30;99.90;;;;;;5032178;28;20261;-77
2021/10/08 05:03:10;;;;;;;13.57;12.17;;;10.20;99.90;;;;;;5016014;28;20568;-77
2021/10/08 05:05:37;;;;;;;15.30;11.30;;;10.20;99.90;;;;;;5016132;28;20590;-77
2021/10/08 05:08:03;;;;;;;12.93;11.30;;;10.20;99.90;;;;;;5031270;28;20577;-77
2021/10/08 05:10:29;;;;;;;17.73;11.83;;;10.20;99.90;;;;;;5014602;28;20187;-78
2021/10/08 05:12:55;;;;;;;13.57;12.27;;;10.20;99.90;;;;;;5031622;28;20284;-78
2021/10/08 05:15:20;;;;;;;16.03;11.77;;;10.20;99.90;;;;;;5014721;28;20181;-78
2021/10/08 05:17:46;;;;;;;14.63;11.17;;;10.20;99.90;;;;;;5034313;28;20211;-77
2021/10/08 05:20:12;;;;;;;16.50;11.83;;;10.20;99.90;;;;;;5034004;28;20182;-78
2021/10/08 05:22:38;;;;;;;13.67;11.40;;;10.30;99.90;;;;;;5033906;28;20193;-77
2021/10/08 05:25:04;;;;;;;11.87;10.67;;;10.20;99.90;;;;;;5034835;28;20670;-78
2021/10/08 05:27:30;;;;;;;13.90;11.03;;;10.20;99.90;;;;;;5015033;28;20221;-77
2021/10/08 05:29:56;;;;;;;14.63;11.33;;;10.40;99.90;;;;;;5033465;28;20204;-77
2021/10/08 05:32:21;;;;;;;15.40;12.87;;;10.40;99.90;;;;;;5031056;28;20172;-78
2021/10/08 05:34:47;;;;;;;15.27;10.87;;;10.40;99.90;;;;;;5034508;28;20569;-77
2021/10/08 05:37:12;;;;;;;13.43;11.90;;;10.40;99.90;;;;;;5034806;28;20179;-77
2021/10/08 05:39:38;;;;;;;14.87;11.67;;;10.50;99.90;;;;;;5033916;28;20174;-78
2021/10/08 05:42:04;;;;;;;15.17;11.40;;;10.50;99.90;;;;;;5034047;28;20182;-77
2021/10/08 05:44:30;;;;;;;13.20;11.13;;;10.50;99.90;;;;;;5032627;28;20203;-77
2021/10/08 05:46:55;;;;;;;12.47;11.27;;;10.40;99.90;;;;;;5033296;28;20577;-78
2021/10/08 05:49:22;;;;;;;13.20;11.83;;;10.50;99.90;;;;;;5031930;28;20211;-78
2021/10/08 05:51:48;;;;;;;15.80;11.43;;;10.40;99.90;;;;;;5014363;28;20178;-77
2021/10/08 05:54:14;;;;;;;14.17;12.23;;;10.40;99.90;;;;;;5034753;28;20735;-77
2021/10/08 05:56:39;;;;;;;12.57;11.37;;;10.40;99.90;;;;;;5017335;28;20171;-78
2021/10/08 05:59:05;;;;;;;13.83;11.63;;;10.40;99.90;;;;;;5019232;28;20182;-78
2021/10/08 06:01:31;;;;;;;12.80;11.60;;;10.40;99.90;;;;;;5032228;28;20177;-78
2021/10/08 06:03:58;;;;;;;14.57;12.13;;;10.60;99.90;;;;;;5032250;28;20206;-78
2021/10/08 06:06:23;;;;;;;14.30;12.80;;;10.60;99.90;;;;;;5013583;28;20202;-77
2021/10/08 06:08:49;;;;;;;12.50;11.20;;;10.60;99.90;;;;;;5033021;28;20604;-77
2021/10/08 06:11:16;;;;;;;12.40;11.10;;;10.70;99.90;;;;;;5017804;28;20182;-78
2021/10/08 06:13:42;;;;;;;13.13;11.93;;;10.70;99.90;;;;;;5018531;28;20562;-76
2021/10/08 06:16:08;;;;;;;13.33;10.70;;;10.70;99.90;;;;;;5032141;28;20177;-77
2021/10/08 06:18:33;;;;;;;11.70;10.60;;;10.70;99.90;;;;;;5013844;28;20181;-76
2021/10/08 06:20:59;;;;;;;15.17;10.13;;;10.70;99.90;;;;;;5033049;28;20685;-76
2021/10/08 06:23:25;;;;;;;12.23;10.77;;;10.60;99.90;;;;;;5033398;28;20208;-77
2021/10/08 06:25:50;;;;;;;12.13;10.83;;;10.60;99.90;;;;;;5019121;28;20175;-77
2021/10/08 06:28:16;;;;;;;11.77;10.53;;;10.60;99.90;;;;;;5032239;28;20207;-76
2021/10/08 06:30:41;;;;;;;11.83;10.57;;;10.60;99.90;;;;;;5033141;28;20171;-77
2021/10/08 06:33:07;;;;;;;12.80;10.70;;;10.50;99.90;;;;;;5014486;28;20199;-77
2021/10/08 06:35:33;;;;;;;12.90;11.17;;;10.50;99.90;;;;;;5015132;28;20202;-77
2021/10/08 06:37:59;;;;;;;15.53;11.33;;;10.50;99.90;;;;;;5032715;28;20177;-77
2021/10/08 06:40:26;;;;;;;11.50;10.40;;;10.50;99.90;;;;;;5032906;28;20193;-78
2021/10/08 06:42:52;;;;;;;14.33;10.37;;;10.50;99.90;;;;;;5032786;28;20252;-77
2021/10/08 06:45:18;;;;;;;11.37;10.27;;;10.50;99.90;;;;;;5034335;28;20178;-77
2021/10/08 06:47:44;;;;;;;12.33;11.23;;;10.50;99.90;;;;;;5016080;28;20225;-78
2021/10/08 06:50:11;;;;;;;14.07;12.00;;;10.60;99.90;;;;;;5033189;28;20650;-77
2021/10/08 06:52:36;;;;;;;14.27;12.77;;;10.60;99.90;;;;;;5028742;28;20202;-77
2021/10/08 06:55:02;;;;;;;13.67;12.47;;;10.50;99.90;;;;;;5036542;28;20179;-78
2021/10/08 06:57:28;;;;;;;14.40;12.87;;;10.60;99.90;;;;;;5034090;28;20267;-77
2021/10/08 06:59:54;;;;;;;14.13;12.70;;;10.60;99.90;;;;;;5015917;28;20215;-77
2021/10/08 07:02:20;;;;;;;14.67;12.57;;;10.70;99.90;;;;;;5033021;28;20660;-77
2021/10/08 07:04:46;;;;;;;18.43;13.03;;;10.70;99.90;;;;;;5032959;28;20259;-77
2021/10/08 07:07:11;;;;;;;15.03;12.73;;;10.70;99.90;;;;;;5032803;28;20220;-78
2021/10/08 07:09:37;;;;;;;14.30;12.90;;;10.70;99.90;;;;;;5015592;28;20588;-78
2021/10/08 07:12:03;;;;;;;14.37;12.97;;;10.80;99.90;;;;;;5015645;28;20549;-78
2021/10/08 07:14:29;;;;;;;14.27;12.97;;;10.80;99.90;;;;;;5032942;28;20206;-78
2021/10/08 07:16:55;;;;;;;13.67;12.37;;;10.90;99.90;;;;;;5031572;28;20256;-77
2021/10/08 07:19:25;;;;;;;16.13;14.30;;;10.90;99.90;;;;;;5014977;28;20265;-77
2021/10/08 07:21:51;;;;;;;15.13;13.50;;;10.90;99.90;;;;;;5016052;28;20206;-78
2021/10/08 07:24:18;;;;;;;15.87;14.20;;;10.90;99.90;;;;;;5033374;28;20205;-77
2021/10/08 07:26:44;;;;;;;15.80;14.20;;;11.00;99.90;;;;;;5033685;28;20238;-78
2021/10/08 07:29:09;;;;;;;17.13;13.97;;;11.00;99.90;;;;;;5035932;28;20180;-78
2021/10/08 07:31:35;;;;;;;15.70;14.17;;;11.10;99.90;;;;;;5016598;28;20191;-77
2021/10/08 07:34:01;;;;;;;19.27;15.60;;;11.10;99.90;;;;;;5011075;28;20849;-77
2021/10/08 07:36:27;;;;;;;17.90;14.73;;;11.10;99.90;;;;;;5030721;28;20682;-77
2021/10/08 07:38:52;;;;;;;16.77;15.07;;;11.20;99.90;;;;;;5014529;28;20269;-78
2021/10/08 07:41:19;;;;;;;16.80;15.00;;;11.20;99.90;;;;;;5014391;28;20631;-77
2021/10/08 07:46:13;;;;;;;17.20;15.33;;;11.20;99.90;;;;;;5040368;28;20202;-84
2021/10/08 07:48:39;;;;;;;17.27;15.07;;;11.20;99.90;;;;;;5042955;28;20215;-83
2021/10/08 07:51:05;;;;;;;16.40;14.70;;;11.30;99.90;;;;;;5042136;28;20171;-82
2021/10/08 07:53:32;;;;;;;20.13;15.50;;;11.30;99.90;;;;;;5024437;28;20180;-84
2021/10/08 07:55:58;;;;;;;16.83;14.47;;;11.30;99.90;;;;;;5042935;28;20196;-84
2021/10/08 07:58:27;;;;;;;15.60;14.03;;;11.40;99.90;;;;;;5038747;28;20185;-83
2021/10/08 08:01:00;;;;;;;17.30;14.90;;;11.40;99.90;;;;;;5023869;28;20194;-83
2021/10/08 08:03:26;;;;;;;15.87;14.23;;;11.40;99.90;;;;;;5042249;28;20619;-84
2021/10/08 08:05:53;;;;;;;17.80;14.63;;;11.50;99.90;;;;;;5024405;28;20270;-83
2021/10/08 08:08:18;;;;;;;18.87;14.00;;;11.50;99.90;;;;;;5040508;28;20227;-83
2021/10/08 08:10:44;;;;;;;15.97;13.20;;;11.60;99.90;;;;;;5023285;28;20209;-84
2021/10/08 08:13:11;;;;;;;14.87;12.30;;;11.60;99.90;;;;;;5023696;28;20178;-84
2021/10/08 08:15:37;;;;;;;14.67;13.17;;;11.70;99.90;;;;;;5022869;28;20198;-84
2021/10/08 08:18:03;;;;;;;14.20;12.60;;;11.80;99.90;;;;;;5041486;28;20180;-83
2021/10/08 08:20:29;;;;;;;13.40;12.07;;;11.80;99.90;;;;;;5041496;28;20246;-83
2021/10/08 08:22:55;;;;;;;14.60;13.23;;;11.80;99.90;;;;;;5041745;28;20232;-82
2021/10/08 08:25:20;;;;;;;16.87;13.40;;;11.80;99.90;;;;;;5042410;28;20282;-84
2021/10/08 08:27:46;;;;;;;14.13;12.80;;;11.90;99.90;;;;;;5041796;28;20266;-84
2021/10/08 08:30:12;;;;;;;15.20;13.47;;;11.90;99.90;;;;;;5041580;28;20189;-84
2021/10/08 08:32:38;;;;;;;13.60;11.73;;;12.00;99.90;;;;;;5042973;28;20168;-84
2021/10/08 08:35:05;;;;;;;13.03;11.83;;;12.00;99.90;;;;;;5039991;28;20226;-84
2021/10/08 08:37:31;;;;;;;12.97;11.77;;;12.10;99.90;;;;;;5040687;28;20185;-84
2021/10/08 08:39:57;;;;;;;14.77;13.37;;;12.20;99.90;;;;;;5041662;28;20180;-85
2021/10/08 08:42:22;;;;;;;14.13;12.73;;;12.30;99.90;;;;;;5040079;28;20678;-84
2021/10/08 08:44:48;;;;;;;13.50;12.07;;;12.40;99.90;;;;;;5039869;28;20222;-85
2021/10/08 08:47:19;;;;;;;13.13;11.87;;;12.40;99.90;;;;;;5041134;28;20193;-83
2021/10/08 08:49:46;;;;;;;18.23;12.53;;;12.50;99.90;;;;;;5032164;28;20211;-85
2021/10/08 08:52:12;;;;;;;11.93;10.93;;;12.50;99.90;;;;;;5041492;28;20178;-84
2021/10/08 08:54:39;;;;;;;12.67;11.37;;;12.50;99.90;;;;;;5023255;28;20196;-85
2021/10/08 08:57:23;;;;;;;12.90;11.07;;;12.60;99.90;;;;;;5024797;28;20189;-84
2021/10/08 09:00:12;;;;;;;12.33;11.13;;;12.60;99.90;;;;;;5043426;28;20182;-84
2021/10/08 09:02:40;;;;;;;11.83;10.70;;;12.60;99.90;;;;;;5043027;28;20280;-84
2021/10/08 09:05:17;;;;;;;11.87;10.77;;;12.70;99.90;;;;;;5044436;28;20603;-85
2021/10/08 09:07:43;;;;;;;10.73;9.70;;;12.70;99.90;;;;;;5043172;28;20282;-85
2021/10/08 09:10:10;;;;;;;11.57;10.47;;;12.80;99.90;;;;;;5042176;28;20181;-85
2021/10/08 09:12:38;;;;;;;12.27;11.10;;;12.70;99.90;;;;;;5023930;28;20176;-85
2021/10/08 09:15:05;;;;;;;11.50;10.40;;;12.70;99.90;;;;;;5041194;28;20197;-84
2021/10/08 09:17:30;;;;;;;12.10;10.87;;;12.70;99.90;;;;;;5041637;28;20188;-84
2021/10/08 09:20:00;;;;;;;11.07;10.07;;;12.70;99.90;;;;;;5042351;28;20260;-84
2021/10/08 09:22:31;;;;;;;13.57;11.23;;;12.70;99.90;;;;;;5024208;28;20181;-85
2021/10/08 09:25:26;;;;;;;11.37;10.37;;;12.80;99.90;;;;;;5041845;28;20566;-85
2021/10/08 09:28:09;;;;;;;10.60;9.63;;;12.80;99.90;;;;;;5041600;28;20189;-85
2021/10/08 09:30:43;;;;;;;11.03;10.13;;;12.90;99.90;;;;;;5041624;28;20171;-85
2021/10/08 09:33:11;;;;;;;11.00;10.00;;;13.00;99.90;;;;;;5042081;28;20185;-85
2021/10/08 09:35:39;;;;;;;11.33;10.27;;;13.00;99.90;;;;;;5040579;28;20195;-84
2021/10/08 09:38:12;;;;;;;10.97;9.97;;;13.00;99.90;;;;;;5022769;28;20528;-84
2021/10/08 09:40:40;;;;;;;10.43;9.50;;;13.00;99.90;;;;;;5040012;28;20180;-85
2021/10/08 09:43:09;;;;;;;11.40;10.20;;;13.10;99.90;;;;;;5022235;28;20185;-84
2021/10/08 09:45:43;;;;;;;11.13;10.03;;;13.20;99.90;;;;;;5040563;28;20237;-85
2021/10/08 09:48:10;;;;;;;10.47;9.57;;;13.30;99.90;;;;;;5029845;28;20203;-85
2021/10/08 09:50:36;;;;;;;10.43;9.63;;;13.30;99.90;;;;;;5040623;28;20184;-85
2021/10/08 09:53:10;;;;;;;12.13;10.87;;;13.30;99.90;;;;;;5040130;28;20185;-84
2021/10/08 09:55:36;;;;;;;10.93;9.97;;;13.40;99.90;;;;;;5040265;28;20197;-85
2021/10/08 09:58:01;;;;;;;14.20;10.00;;;13.50;99.90;;;;;;5041071;28;20185;-85
2021/10/08 10:00:34;;;;;;;11.30;10.30;;;13.60;99.90;;;;;;5040014;28;20612;-84
2021/10/08 10:03:02;;;;;;;11.57;10.30;;;13.60;99.90;;;;;;5040311;28;20177;-85
2021/10/08 10:05:28;;;;;;;12.57;10.20;;;13.70;99.90;;;;;;5040293;28;20201;-85
2021/10/08 10:07:55;;;;;;;13.37;10.60;;;13.70;99.90;;;;;;5040461;28;20198;-85
2021/10/08 10:10:23;;;;;;;11.80;10.60;;;13.80;99.90;;;;;;5041611;28;20237;-86
2021/10/08 10:12:50;;;;;;;12.20;10.63;;;13.90;99.90;;;;;;5040830;28;20696;-85
2021/10/08 10:15:17;;;;;;;11.33;10.33;;;13.90;99.90;;;;;;5040746;28;20196;-85
2021/10/08 10:17:43;;;;;;;11.67;10.50;;;14.00;99.90;;;;;;5041154;28;20212;-85
2021/10/08 10:20:10;;;;;;;12.33;10.83;;;14.00;99.90;;;;;;5040589;28;20174;-86
2021/10/08 10:22:36;;;;;;;12.27;11.13;;;14.00;99.90;;;;;;5041327;28;20175;-86
2021/10/08 10:25:04;;;;;;;12.17;10.90;;;13.90;99.90;;;;;;5039743;28;20671;-85
2021/10/08 10:27:29;;;;;;;11.80;10.67;;;13.90;99.90;;;;;;5040067;28;20215;-85
2021/10/08 10:29:56;;;;;;;11.60;10.63;;;13.80;99.90;;;;;;5039950;28;20265;-85
2021/10/08 10:32:23;;;;;;;11.30;10.20;;;13.80;99.90;;;;;;5040029;28;20170;-85
2021/10/08 10:34:49;;;;;;;11.43;10.33;;;13.90;99.90;;;;;;5039972;28;20195;-85
2021/10/08 10:37:41;;;;;;;11.80;10.63;;;14.00;99.90;;;;;;5039705;28;20689;-82
2021/10/08 10:40:24;;;;;;;12.87;11.67;;;14.00;99.90;;;;;;5039575;28;20653;-86
2021/10/08 10:43:14;;;;;;;13.30;11.93;;;14.20;99.90;;;;;;5039013;28;20197;-84
2021/10/08 10:45:46;;;;;;;12.03;10.90;;;14.30;99.90;;;;;;5021236;28;20210;-85
2021/10/08 10:48:26;;;;;;;12.33;11.10;;;14.40;99.90;;;;;;5039236;28;20204;-84
2021/10/08 10:51:14;;;;;;;11.83;10.73;;;14.50;99.90;;;;;;5025627;28;20171;-85
2021/10/08 10:53:53;;;;;;;12.43;11.30;;;14.50;99.90;;;;;;5038846;28;20178;-85
2021/10/08 10:56:38;;;;;;;11.40;10.40;;;14.60;99.90;;;;;;5038749;28;20181;-85
2021/10/08 10:59:22;;;;;;;11.50;10.40;;;14.70;99.90;;;;;;5038346;28;20182;-85
2021/10/08 11:02:10;;;;;;;10.10;8.93;;;14.70;99.90;;;;;;5038221;28;20175;-85
2021/10/08 11:04:38;;;;;;;10.93;9.90;;;14.80;99.90;;;;;;5020392;28;20194;-85
2021/10/08 11:07:12;;;;;;;11.40;9.00;;;14.90;99.90;;;;;;5019780;28;20198;-85
2021/10/08 11:09:39;;;;;;;10.90;9.80;;;15.00;99.90;;;;;;5037495;28;20637;-85
2021/10/08 11:12:35;;;;;;;10.87;9.83;;;15.00;99.90;;;;;;5019737;28;20177;-84
2021/10/08 11:15:18;;;;;;;11.30;10.30;;;15.10;99.90;;;;;;5038136;28;20194;-85
2021/10/08 11:17:54;;;;;;;10.90;9.80;;;15.20;99.90;;;;;;5039471;28;20197;-85
2021/10/08 11:20:28;;;;;;;10.87;9.87;;;15.30;99.90;;;;;;5042780;28;20174;-85
2021/10/08 11:22:55;;;;;;;10.23;9.20;;;15.30;99.90;;;;;;5025855;28;20177;-85
2021/10/08 11:25:21;;;;;;;10.47;8.87;;;15.40;99.90;;;;;;5043125;28;20198;-85
2021/10/08 11:27:47;;;;;;;9.10;8.30;;;15.60;99.90;;;;;;5042389;28;20202;-85
2021/10/08 11:30:13;;;;;;;8.83;8.03;;;15.60;99.90;;;;;;5043560;28;20175;-85
2021/10/08 11:32:45;;;;;;;9.13;8.27;;;15.70;99.90;;;;;;5042591;28;20199;-85
2021/10/08 11:35:14;;;;;;;9.10;8.20;;;15.70;99.90;;;;;;5043314;28;20186;-84
2021/10/08 11:37:43;;;;;;;9.40;8.40;;;15.80;99.90;;;;;;5043172;28;20237;-85
2021/10/08 11:40:10;;;;;;;9.70;8.80;;;15.80;99.90;;;;;;5021827;28;20179;-86
2021/10/08 11:42:51;;;;;;;9.60;8.60;;;15.90;99.90;;;;;;5024411;28;20181;-85
2021/10/08 11:45:21;;;;;;;9.00;8.30;;;15.90;99.90;;;;;;5023891;28;20236;-86
2021/10/08 11:47:53;;;;;;;9.43;7.67;;;16.00;99.90;;;;;;5042840;28;20198;-86
2021/10/08 11:50:41;;;;;;;9.73;8.83;;;16.00;99.90;;;;;;5025776;28;20179;-85
2021/10/08 11:53:06;;;;;;;8.73;7.93;;;15.90;99.90;;;;;;5040103;28;20285;-86
2021/10/08 11:55:38;;;;;;;9.23;8.30;;;15.90;99.90;;;;;;5035449;28;20191;-85
2021/10/08 11:58:08;;;;;;;9.60;8.77;;;15.90;99.90;;;;;;5043415;28;20181;-85
2021/10/08 12:00:44;;;;;;;9.00;8.20;;;16.00;99.90;;;;;;5043152;28;20646;-85
2021/10/08 12:03:12;;;;;;;8.27;7.57;;;16.00;99.90;;;;;;5042746;28;20202;-84
2021/10/08 12:05:50;;;;;;;10.30;8.83;;;16.10;99.90;;;;;;5043080;28;20202;-84
2021/10/08 12:08:21;;;;;;;9.00;8.30;;;16.20;99.90;;;;;;5042687;28;20197;-85
2021/10/08 12:11:07;;;;;;;9.37;8.57;;;16.30;99.90;;;;;;5042840;28;20653;-86
2021/10/08 12:13:39;;;;;;;9.77;8.90;;;16.30;99.90;;;;;;5043630;28;20159;-86
2021/10/08 12:16:06;;;;;;;10.47;9.57;;;16.30;99.90;;;;;;5042724;28;20170;-86
2021/10/08 12:18:32;;;;;;;10.00;9.13;;;16.30;99.90;;;;;;5042849;28;20171;-85
2021/10/08 12:21:12;;;;;;;9.47;8.57;;;16.30;99.90;;;;;;5024313;28;20189;-85
2021/10/08 12:23:39;;;;;;;9.87;8.27;;;16.30;99.90;;;;;;5041958;28;20185;-86
2021/10/08 12:26:05;;;;;;;8.00;7.30;;;16.20;99.90;;;;;;5041026;28;20219;-86
2021/10/08 12:28:31;;;;;;;8.30;7.60;;;16.20;99.90;;;;;;5042284;28;20747;-86
2021/10/08 12:31:05;;;;;;;8.83;8.03;;;16.10;99.90;;;;;;5041630;28;20196;-86
2021/10/08 12:33:42;;;;;;;9.20;8.30;;;16.10;99.90;;;;;;5045785;28;20235;-85
2021/10/08 12:36:10;;;;;;;9.63;8.57;;;16.10;99.90;;;;;;5047119;28;20171;-86
2021/10/08 12:39:05;;;;;;;10.07;8.10;;;16.20;99.90;;;;;;5043686;28;20312;-86
2021/10/08 12:41:44;;;;;;;9.63;8.20;;;16.20;99.90;;;;;;5040425;28;20179;-85